Wetterdaten: Woche 17.10.22 - 23.10.22 (KW42)
Datum Zeit Temp. Aussen Temp. o. S. Temp +5cm Feuchte Auss Luftdruck Regen Sonnenschein Regendauer Solar Windben Empfang
17.10.2022 00:00 15,5 C 14,4 C 11,1 C 97 % 1017,3 hPa 0,0 l/m 0,00 h 0,00 h 0 W/m 4,4 km/h (1 Bft) 98,23 %
17.10.2022 01:00 15,4 C 14,4 C 11,1 C 97 % 1017,4 hPa 0,0 l/m 0,00 h 0,00 h 0 W/m 4,3 km/h (1 Bft) 97,80 %
17.10.2022 02:00 15,4 C 14,4 C 11,4 C 98 % 1017,2 hPa 0,2 l/m 0,00 h 0,00 h 0 W/m 6,3 km/h (2 Bft) 95,45 %
17.10.2022 03:00 15,6 C 14,8 C 11,7 C 98 % 1017,1 hPa 0,0 l/m 0,00 h 0,00 h 0 W/m 9,3 km/h (2 Bft) 99,50 %
17.10.2022 04:00 15,4 C 14,5 C 11,7 C 98 % 1016,8 hPa 0,0 l/m 0,00 h 0,00 h 0 W/m 8,5 km/h (2 Bft) 94,53 %
17.10.2022 05:00 15,3 C 14,4 C 11,7 C 98 % 1016,9 hPa 0,0 l/m 0,00 h 0,00 h 0 W/m 7,1 km/h (2 Bft) 97,85 %
17.10.2022 06:00 15,3 C 14,4 C 11,8 C 98 % 1017,2 hPa 0,0 l/m 0,00 h 0,00 h 0 W/m 7,2 km/h (2 Bft) 98,23 %
17.10.2022 07:00 15,4 C 14,7 C 12,2 C 97 % 1017,7 hPa 0,0 l/m 0,00 h 0,00 h 0 W/m 5,1 km/h (1 Bft) 95,50 %
17.10.2022 08:00 15,5 C 15,0 C 12,4 C 97 % 1018,0 hPa 0,0 l/m 0,00 h 0,00 h 20 W/m 8,7 km/h (2 Bft) 96,30 %
17.10.2022 09:00 16,1 C 16,0 C 13,0 C 96 % 1018,5 hPa 0,0 l/m 0,00 h 0,00 h 67 W/m 6,6 km/h (2 Bft) 97,67 %
17.10.2022 10:00 17,4 C 17,4 C 14,2 C 93 % 1019,1 hPa 0,0 l/m 0,03 h 0,00 h 112 W/m 13,9 km/h (3 Bft) 96,08 %
17.10.2022 11:00 18,7 C 18,4 C 15,0 C 89 % 1019,8 hPa 0,0 l/m 0,07 h 0,00 h 119 W/m 10,3 km/h (2 Bft) 98,43 %
17.10.2022 12:00 19,1 C 18,7 C 14,9 C 89 % 1020,5 hPa 0,0 l/m 0,00 h 0,10 h 110 W/m 4,6 km/h (1 Bft) 96,92 %
17.10.2022 13:00 19,3 C 18,7 C 15,0 C 90 % 1020,8 hPa 0,0 l/m 0,00 h 0,13 h 112 W/m 3,9 km/h (1 Bft) 96,08 %
17.10.2022 14:00 19,2 C 18,4 C 14,7 C 90 % 1021,3 hPa 0,0 l/m 0,00 h 0,03 h 56 W/m 4,9 km/h (1 Bft) 97,89 %
17.10.2022 15:00 19,3 C 18,9 C 15,3 C 88 % 1021,8 hPa 0,0 l/m 0,00 h 0,07 h 50 W/m 10,6 km/h (2 Bft) 95,63 %
17.10.2022 16:00 19,3 C 18,9 C 15,4 C 88 % 1022,5 hPa 0,0 l/m 0,00 h 0,00 h 51 W/m 8,4 km/h (2 Bft) 95,70 %
17.10.2022 17:00 18,8 C 17,7 C 14,1 C 91 % 1023,2 hPa 0,0 l/m 0,00 h 0,37 h 25 W/m 6,2 km/h (2 Bft) 99,83 %
17.10.2022 18:00 17,6 C 16,5 C 13,1 C 94 % 1023,8 hPa 0,2 l/m 0,00 h 0,40 h 5 W/m 5,3 km/h (1 Bft) 96,23 %
17.10.2022 19:00 17,0 C 16,1 C 12,8 C 96 % 1024,3 hPa 0,2 l/m 0,00 h 0,30 h 0 W/m 7,7 km/h (2 Bft) 96,60 %
17.10.2022 20:00 16,6 C 15,6 C 12,4 C 96 % 1024,8 hPa 0,0 l/m 0,00 h 0,37 h 0 W/m 5,0 km/h (1 Bft) 97,94 %
17.10.2022 21:00 16,3 C 15,4 C 12,2 C 97 % 1025,1 hPa 0,2 l/m 0,00 h 0,63 h 0 W/m 3,8 km/h (1 Bft) 96,04 %
17.10.2022 22:00 16,0 C 15,0 C 12,1 C 97 % 1025,3 hPa 0,4 l/m 0,00 h 0,90 h 0 W/m 4,1 km/h (1 Bft) 97,74 %
17.10.2022 23:00 15,5 C 14,4 C 11,7 C 97 % 1025,5 hPa 0,0 l/m 0,00 h 0,10 h 0 W/m 2,0 km/h (1 Bft) 97,96 %
18.10.2022 00:00 15,2 C 14,3 C 11,7 C 98 % 1025,9 hPa 0,0 l/m 0,00 h 0,00 h 0 W/m 0,2 km/h (0 Bft) 96,16 %
18.10.2022 01:00 15,1 C 13,9 C 11,6 C 98 % 1026,1 hPa 0,2 l/m 0,00 h 0,17 h 0 W/m 0,1 km/h (0 Bft) 97,80 %
18.10.2022 02:00 14,9 C 13,9 C 11,7 C 98 % 1025,8 hPa 0,0 l/m 0,00 h 0,00 h 0 W/m 0,1 km/h (0 Bft) 96,96 %
18.10.2022 03:00 14,9 C 13,9 C 11,7 C 98 % 1025,6 hPa 0,0 l/m 0,00 h 0,27 h 0 W/m 0,0 km/h (0 Bft) 96,64 %
18.10.2022 04:00 15,0 C 13,9 C 11,7 C 99 % 1025,6 hPa 0,4 l/m 0,00 h 1,00 h 0 W/m 0,0 km/h (0 Bft) 98,00 %
18.10.2022 05:00 15,1 C 13,9 C 11,7 C 99 % 1025,7 hPa 0,8 l/m 0,00 h 0,90 h 0 W/m 0,0 km/h (0 Bft) 97,15 %
18.10.2022 06:00 15,1 C 14,0 C 11,8 C 99 % 1025,8 hPa 0,0 l/m 0,00 h 0,13 h 0 W/m 0,0 km/h (0 Bft) 97,80 %
18.10.2022 07:00 14,9 C 13,9 C 11,8 C 99 % 1025,8 hPa 0,0 l/m 0,00 h 0,00 h 0 W/m 0,1 km/h (0 Bft) 95,73 %
18.10.2022 08:00 14,7 C 13,9 C 11,8 C 99 % 1026,2 hPa 0,0 l/m 0,00 h 0,00 h 10 W/m 0,2 km/h (0 Bft) 99,22 %
18.10.2022 09:00 14,9 C 14,2 C 12,1 C 100 % 1026,7 hPa 0,0 l/m 0,00 h 0,00 h 47 W/m 1,7 km/h (1 Bft) 95,42 %
18.10.2022 10:00 15,2 C 15,0 C 12,7 C 100 % 1027,5 hPa 0,0 l/m 0,00 h 0,00 h 78 W/m 7,6 km/h (2 Bft) 98,29 %
18.10.2022 11:00 15,3 C 15,2 C 12,8 C 100 % 1027,9 hPa 0,0 l/m 0,00 h 0,00 h 97 W/m 9,1 km/h (2 Bft) 98,22 %
18.10.2022 12:00 15,3 C 15,6 C 12,8 C 100 % 1028,3 hPa 0,0 l/m 0,00 h 0,00 h 135 W/m 8,2 km/h (2 Bft) 94,78 %
18.10.2022 13:00 15,5 C 16,0 C 12,8 C 100 % 1028,4 hPa 0,0 l/m 0,00 h 0,00 h 144 W/m 4,8 km/h (1 Bft) 97,28 %
18.10.2022 14:00 16,3 C 17,2 C 12,8 C 96 % 1028,2 hPa 0,0 l/m 0,63 h 0,00 h 363 W/m 9,2 km/h (2 Bft) 98,44 %
18.10.2022 15:00 17,1 C 17,5 C 13,3 C 89 % 1028,1 hPa 0,0 l/m 0,97 h 0,00 h 389 W/m 9,7 km/h (2 Bft) 96,43 %
18.10.2022 16:00 17,4 C 17,2 C 13,3 C 85 % 1028,0 hPa 0,0 l/m 0,97 h 0,00 h 258 W/m 6,7 km/h (2 Bft) 96,23 %
18.10.2022 17:00 16,9 C 15,7 C 12,3 C 81 % 1028,1 hPa 0,0 l/m 0,03 h 0,00 h 38 W/m 4,6 km/h (1 Bft) 97,75 %
18.10.2022 18:00 15,6 C 13,2 C 10,1 C 84 % 1028,2 hPa 0,0 l/m 0,00 h 0,00 h 12 W/m 0,0 km/h (0 Bft) 91,66 %
18.10.2022 19:00 13,8 C 11,7 C 8,7 C 89 % 1028,7 hPa 0,0 l/m 0,00 h 0,00 h 0 W/m 0,2 km/h (0 Bft) 91,36 %
18.10.2022 20:00 12,3 C 10,6 C 7,9 C 91 % 1029,0 hPa 0,0 l/m 0,00 h 0,00 h 0 W/m 0,0 km/h (0 Bft) 73,79 %
18.10.2022 21:00 11,2 C 9,7 C 7,2 C 93 % 1029,0 hPa 0,0 l/m 0,00 h 0,00 h 0 W/m 0,0 km/h (0 Bft) 76,28 %
18.10.2022 22:00 10,4 C 9,3 C 6,7 C 94 % 1029,2 hPa 0,0 l/m 0,00 h 0,00 h 0 W/m 0,3 km/h (0 Bft) 98,21 %
18.10.2022 23:00 10,1 C 9,2 C 6,7 C 95 % 1029,1 hPa 0,0 l/m 0,00 h 0,00 h 0 W/m 1,8 km/h (1 Bft) 96,29 %
19.10.2022 00:00 9,7 C 8,5 C 6,4 C 95 % 1028,9 hPa 0,0 l/m 0,00 h 0,00 h 0 W/m 0,2 km/h (0 Bft) 97,48 %
19.10.2022 01:00 9,1 C 7,9 C 6,0 C 96 % 1028,9 hPa 0,0 l/m 0,00 h 0,00 h 0 W/m 0,3 km/h (0 Bft) 98,79 %
19.10.2022 02:00 8,5 C 7,2 C 5,3 C 96 % 1028,9 hPa 0,0 l/m 0,00 h 0,00 h 0 W/m 0,0 km/h (0 Bft) 96,63 %
19.10.2022 03:00 7,7 C 6,5 C 4,9 C 96 % 1028,7 hPa 0,0 l/m 0,00 h 0,00 h 0 W/m 0,0 km/h (0 Bft) 96,90 %
19.10.2022 04:00 7,3 C 6,2 C 4,4 C 97 % 1028,3 hPa 0,0 l/m 0,00 h 0,00 h 0 W/m 0,0 km/h (0 Bft) 95,77 %
19.10.2022 05:00 7,2 C 6,2 C 4,4 C 97 % 1028,0 hPa 0,0 l/m 0,00 h 0,00 h 0 W/m 0,0 km/h (0 Bft) 98,15 %
19.10.2022 06:00 6,8 C 5,8 C 4,2 C 97 % 1028,1 hPa 0,2 l/m 0,00 h 0,00 h 0 W/m 0,1 km/h (0 Bft) 96,01 %
19.10.2022 07:00 6,8 C 6,1 C 4,3 C 98 % 1027,9 hPa 0,0 l/m 0,00 h 0,00 h 0 W/m 1,2 km/h (1 Bft) 96,49 %
19.10.2022 08:00 7,0 C 6,3 C 4,5 C 98 % 1027,8 hPa 0,0 l/m 0,00 h 0,00 h 13 W/m 2,2 km/h (1 Bft) 96,88 %
19.10.2022 09:00 7,6 C 7,3 C 5,3 C 98 % 1027,9 hPa 0,0 l/m 0,00 h 0,00 h 33 W/m 2,2 km/h (1 Bft) 98,39 %
19.10.2022 10:00 9,4 C 9,7 C 7,1 C 99 % 1027,8 hPa 0,0 l/m 0,30 h 0,00 h 128 W/m 7,1 km/h (2 Bft) 95,93 %
19.10.2022 11:00 11,7 C 18,5 C 10,5 C 98 % 1027,3 hPa 0,0 l/m 0,37 h 0,00 h 224 W/m 9,9 km/h (2 Bft) 97,54 %
19.10.2022 12:00 13,8 C 14,3 C 10,6 C 83 % 1026,9 hPa 0,0 l/m 0,00 h 0,00 h 81 W/m 11,0 km/h (2 Bft) 98,67 %
19.10.2022 13:00 14,6 C 15,0 C 10,9 C 80 % 1026,1 hPa 0,0 l/m 0,13 h 0,00 h 134 W/m 11,4 km/h (2 Bft) 97,23 %
19.10.2022 14:00 15,9 C 16,8 C 11,5 C 77 % 1025,2 hPa 0,0 l/m 1,00 h 0,00 h 480 W/m 9,3 km/h (2 Bft) 97,07 %
19.10.2022 15:00 16,1 C 16,3 C 11,1 C 76 % 1024,3 hPa 0,0 l/m 1,00 h 0,00 h 323 W/m 8,4 km/h (2 Bft) 98,11 %
19.10.2022 16:00 15,3 C 14,8 C 10,7 C 80 % 1023,7 hPa 0,0 l/m 0,50 h 0,00 h 149 W/m 7,4 km/h (2 Bft) 97,57 %
19.10.2022 17:00 14,7 C 14,1 C 10,2 C 82 % 1023,1 hPa 0,0 l/m 0,57 h 0,00 h 77 W/m 6,7 km/h (2 Bft) 96,70 %
19.10.2022 18:00 13,1 C 11,5 C 8,2 C 85 % 1022,5 hPa 0,0 l/m 0,00 h 0,00 h 12 W/m 4,1 km/h (1 Bft) 95,93 %
19.10.2022 19:00 11,8 C 10,6 C 7,4 C 90 % 1022,1 hPa 0,0 l/m 0,00 h 0,00 h 0 W/m 6,1 km/h (2 Bft) 97,88 %
19.10.2022 20:00 11,3 C 10,3 C 7,2 C 91 % 1022,0 hPa 0,0 l/m 0,00 h 0,00 h 0 W/m 6,0 km/h (2 Bft) 96,73 %
19.10.2022 21:00 10,4 C 9,4 C 6,2 C 92 % 1021,5 hPa 0,0 l/m 0,00 h 0,00 h 0 W/m 2,2 km/h (1 Bft) 96,07 %
19.10.2022 22:00 10,3 C 9,6 C 6,7 C 93 % 1020,9 hPa 0,0 l/m 0,00 h 0,00 h 0 W/m 6,0 km/h (2 Bft) 96,46 %
19.10.2022 23:00 10,8 C 10,0 C 7,2 C 91 % 1020,4 hPa 0,0 l/m 0,00 h 0,00 h 0 W/m 8,2 km/h (2 Bft) 96,19 %
20.10.2022 00:00 10,8 C 10,0 C 7,2 C 91 % 1019,8 hPa 0,0 l/m 0,00 h 0,00 h 0 W/m 6,8 km/h (2 Bft) 91,17 %
20.10.2022 01:00 10,7 C 10,0 C 7,0 C 93 % 1018,9 hPa 0,0 l/m 0,00 h 0,00 h 0 W/m 6,6 km/h (2 Bft) 97,21 %
20.10.2022 02:00 11,1 C 10,4 C 7,6 C 93 % 1018,1 hPa 0,0 l/m 0,00 h 0,00 h 0 W/m 13,8 km/h (3 Bft) 93,63 %
20.10.2022 03:00 11,3 C 10,6 C 7,8 C 91 % 1017,3 hPa 0,0 l/m 0,00 h 0,00 h 0 W/m 14,7 km/h (3 Bft) 96,02 %
20.10.2022 04:00 11,4 C 10,6 C 7,8 C 91 % 1016,5 hPa 0,0 l/m 0,00 h 0,00 h 0 W/m 15,8 km/h (3 Bft) 93,73 %
20.10.2022 05:00 11,4 C 10,6 C 7,8 C 90 % 1015,9 hPa 0,0 l/m 0,00 h 0,00 h 0 W/m 15,7 km/h (3 Bft) 98,56 %
20.10.2022 06:00 11,4 C 10,6 C 7,8 C 89 % 1015,2 hPa 0,0 l/m 0,00 h 0,00 h 0 W/m 18,4 km/h (3 Bft) 94,84 %
20.10.2022 07:00 11,6 C 10,7 C 7,8 C 88 % 1014,4 hPa 0,0 l/m 0,00 h 0,00 h 0 W/m 17,4 km/h (3 Bft) 92,67 %
20.10.2022 08:00 11,7 C 11,0 C 7,8 C 88 % 1014,1 hPa 0,0 l/m 0,00 h 0,00 h 16 W/m 17,4 km/h (3 Bft) 98,07 %
20.10.2022 09:00 12,1 C 11,7 C 8,3 C 88 % 1014,3 hPa 0,0 l/m 0,00 h 0,00 h 60 W/m 17,2 km/h (3 Bft) 96,18 %
20.10.2022 10:00 12,7 C 12,5 C 9,0 C 87 % 1014,2 hPa 0,0 l/m 0,00 h 0,00 h 127 W/m 17,3 km/h (3 Bft) 96,31 %
20.10.2022 11:00 13,3 C 13,2 C 9,5 C 86 % 1013,8 hPa 0,0 l/m 0,00 h 0,00 h 141 W/m 19,5 km/h (3 Bft) 98,10 %
20.10.2022 12:00 13,7 C 13,4 C 9,6 C 86 % 1013,9 hPa 0,0 l/m 0,00 h 0,17 h 161 W/m 20,7 km/h (4 Bft) 97,42 %
20.10.2022 13:00 13,2 C 12,2 C 8,3 C 91 % 1013,6 hPa 1,0 l/m 0,00 h 0,90 h 58 W/m 17,0 km/h (3 Bft) 97,57 %
20.10.2022 14:00 12,8 C 12,1 C 8,6 C 96 % 1013,1 hPa 0,6 l/m 0,00 h 0,50 h 99 W/m 13,8 km/h (3 Bft) 96,72 %
20.10.2022 15:00 13,5 C 13,6 C 9,3 C 97 % 1012,6 hPa 0,0 l/m 0,33 h 0,00 h 177 W/m 14,5 km/h (3 Bft) 97,72 %
20.10.2022 16:00 14,4 C 14,4 C 9,5 C 95 % 1012,2 hPa 0,0 l/m 0,93 h 0,00 h 234 W/m 17,6 km/h (3 Bft) 97,39 %
20.10.2022 17:00 14,6 C 14,0 C 9,9 C 92 % 1011,8 hPa 0,0 l/m 0,20 h 0,00 h 48 W/m 17,7 km/h (3 Bft) 97,15 %
20.10.2022 18:00 14,0 C 13,0 C 9,8 C 94 % 1011,4 hPa 0,0 l/m 0,13 h 0,00 h 15 W/m 12,3 km/h (3 Bft) 97,62 %
20.10.2022 19:00 13,5 C 12,8 C 9,5 C 95 % 1011,4 hPa 0,0 l/m 0,00 h 0,00 h 0 W/m 11,3 km/h (2 Bft) 97,96 %
20.10.2022 20:00 13,5 C 12,8 C 10,0 C 96 % 1011,1 hPa 0,0 l/m 0,00 h 0,00 h 0 W/m 14,3 km/h (3 Bft) 95,51 %
20.10.2022 21:00 13,5 C 12,8 C 10,0 C 96 % 1010,6 hPa 0,0 l/m 0,00 h 0,00 h 0 W/m 12,2 km/h (2 Bft) 99,22 %
20.10.2022 22:00 13,4 C 12,7 C 9,9 C 96 % 1010,0 hPa 0,0 l/m 0,00 h 0,00 h 0 W/m 11,6 km/h (2 Bft) 97,63 %
20.10.2022 23:00 13,4 C 12,8 C 10,0 C 97 % 1009,9 hPa 0,0 l/m 0,00 h 0,00 h 0 W/m 11,5 km/h (2 Bft) 96,37 %
21.10.2022 00:00 13,9 C 13,1 C 10,3 C 97 % 1010,0 hPa 0,2 l/m 0,00 h 0,53 h 0 W/m 17,0 km/h (3 Bft) 99,10 %
21.10.2022 01:00 14,1 C 13,3 C 10,0 C 97 % 1009,4 hPa 0,0 l/m 0,00 h 0,13 h 0 W/m 14,8 km/h (3 Bft) 96,65 %
21.10.2022 02:00 14,0 C 13,2 C 10,0 C 97 % 1009,1 hPa 0,0 l/m 0,00 h 0,00 h 0 W/m 12,8 km/h (3 Bft) 97,50 %
21.10.2022 03:00 13,6 C 12,5 C 10,0 C 97 % 1008,6 hPa 0,0 l/m 0,00 h 0,00 h 0 W/m 5,7 km/h (1 Bft) 97,72 %
21.10.2022 04:00 13,4 C 12,4 C 9,8 C 98 % 1008,0 hPa 0,0 l/m 0,00 h 0,00 h 0 W/m 4,9 km/h (1 Bft) 95,98 %
21.10.2022 05:00 13,2 C 12,2 C 9,9 C 98 % 1007,8 hPa 0,2 l/m 0,00 h 0,00 h 0 W/m 6,0 km/h (2 Bft) 97,51 %
21.10.2022 06:00 13,3 C 12,7 C 10,2 C 98 % 1007,7 hPa 0,0 l/m 0,00 h 0,00 h 0 W/m 7,5 km/h (2 Bft) 99,30 %
21.10.2022 07:00 13,4 C 12,8 C 10,4 C 98 % 1007,4 hPa 0,0 l/m 0,00 h 0,00 h 0 W/m 6,0 km/h (2 Bft) 93,78 %
21.10.2022 08:00 13,4 C 12,8 C 10,4 C 98 % 1007,1 hPa 0,0 l/m 0,00 h 0,00 h 10 W/m 2,7 km/h (1 Bft) 98,93 %
21.10.2022 09:00 13,9 C 13,5 C 11,0 C 98 % 1007,9 hPa 0,0 l/m 0,00 h 0,00 h 20 W/m 6,0 km/h (2 Bft) 97,80 %
21.10.2022 10:00 14,4 C 13,9 C 11,2 C 98 % 1008,0 hPa 0,0 l/m 0,00 h 0,00 h 32 W/m 9,9 km/h (2 Bft) 96,53 %
21.10.2022 11:00 14,9 C 14,4 C 11,9 C 98 % 1008,4 hPa 0,0 l/m 0,00 h 0,00 h 56 W/m 10,0 km/h (2 Bft) 97,02 %
21.10.2022 12:00 15,2 C 14,8 C 12,1 C 98 % 1008,8 hPa 0,0 l/m 0,00 h 0,07 h 80 W/m 5,7 km/h (1 Bft) 98,42 %
21.10.2022 13:00 15,9 C 16,4 C 13,2 C 98 % 1008,8 hPa 0,0 l/m 0,20 h 0,00 h 176 W/m 5,1 km/h (1 Bft) 95,89 %
21.10.2022 14:00 17,7 C 18,9 C 14,8 C 93 % 1008,4 hPa 0,0 l/m 0,70 h 0,00 h 266 W/m 9,3 km/h (2 Bft) 99,15 %
21.10.2022 15:00 18,9 C 18,6 C 14,8 C 86 % 1008,4 hPa 0,0 l/m 0,27 h 0,03 h 148 W/m 11,5 km/h (2 Bft) 95,78 %
21.10.2022 16:00 18,7 C 18,6 C 14,3 C 89 % 1008,4 hPa 0,0 l/m 0,57 h 0,00 h 163 W/m 7,3 km/h (2 Bft) 97,51 %
21.10.2022 17:00 18,9 C 18,3 C 14,2 C 84 % 1008,3 hPa 0,0 l/m 0,03 h 0,00 h 44 W/m 8,5 km/h (2 Bft) 98,36 %
21.10.2022 18:00 18,2 C 16,4 C 12,7 C 87 % 1008,6 hPa 0,0 l/m 0,00 h 0,00 h 11 W/m 0,4 km/h (0 Bft) 96,09 %
21.10.2022 19:00 16,8 C 15,5 C 11,8 C 89 % 1008,9 hPa 0,0 l/m 0,00 h 0,00 h 0 W/m 2,2 km/h (1 Bft) 97,85 %
21.10.2022 20:00 15,8 C 14,3 C 11,3 C 91 % 1009,4 hPa 0,0 l/m 0,00 h 0,00 h 0 W/m 1,9 km/h (1 Bft) 98,61 %
21.10.2022 21:00 14,8 C 13,5 C 10,7 C 93 % 1009,4 hPa 0,0 l/m 0,00 h 0,00 h 0 W/m 2,8 km/h (1 Bft) 95,21 %
21.10.2022 22:00 14,1 C 12,9 C 10,4 C 95 % 1009,9 hPa 0,0 l/m 0,00 h 0,00 h 0 W/m 4,5 km/h (1 Bft) 99,58 %
21.10.2022 23:00 13,6 C 12,7 C 10,0 C 96 % 1010,1 hPa 0,0 l/m 0,00 h 0,00 h 0 W/m 2,5 km/h (1 Bft) 96,69 %
22.10.2022 00:00 13,4 C 12,5 C 10,0 C 97 % 1009,9 hPa 0,0 l/m 0,00 h 0,00 h 0 W/m 2,9 km/h (1 Bft) 97,14 %
22.10.2022 01:00 13,3 C 12,5 C 10,0 C 97 % 1010,1 hPa 0,0 l/m 0,00 h 0,00 h 0 W/m 3,7 km/h (1 Bft) 96,93 %
22.10.2022 02:00 13,4 C 12,4 C 10,0 C 98 % 1010,4 hPa 0,0 l/m 0,00 h 0,00 h 0 W/m 3,8 km/h (1 Bft) 95,96 %
22.10.2022 03:00 13,4 C 12,6 C 10,0 C 98 % 1010,2 hPa 0,0 l/m 0,00 h 0,00 h 0 W/m 4,4 km/h (1 Bft) 97,65 %
22.10.2022 04:00 13,4 C 12,6 C 10,0 C 98 % 1010,2 hPa 0,0 l/m 0,00 h 0,00 h 0 W/m 5,0 km/h (1 Bft) 96,74 %
22.10.2022 05:00 13,1 C 12,2 C 10,0 C 99 % 1010,4 hPa 0,2 l/m 0,00 h 0,00 h 0 W/m 1,2 km/h (1 Bft) 99,24 %
22.10.2022 06:00 12,8 C 11,8 C 9,6 C 99 % 1010,8 hPa 0,0 l/m 0,00 h 0,00 h 0 W/m 2,0 km/h (1 Bft) 96,42 %
22.10.2022 07:00 12,5 C 11,7 C 9,4 C 99 % 1011,2 hPa 0,0 l/m 0,00 h 0,00 h 0 W/m 2,7 km/h (1 Bft) 97,45 %
22.10.2022 08:00 12,3 C 11,9 C 9,6 C 99 % 1011,9 hPa 0,0 l/m 0,00 h 0,00 h 20 W/m 2,9 km/h (1 Bft) 98,61 %
22.10.2022 09:00 12,9 C 13,1 C 10,7 C 99 % 1012,7 hPa 0,0 l/m 0,00 h 0,00 h 44 W/m 2,7 km/h (1 Bft) 97,38 %
22.10.2022 10:00 13,9 C 14,5 C 11,8 C 99 % 1013,5 hPa 0,0 l/m 0,00 h 0,00 h 89 W/m 9,6 km/h (2 Bft) 96,73 %
22.10.2022 11:00 15,4 C 15,8 C 13,0 C 94 % 1014,0 hPa 0,0 l/m 0,00 h 0,00 h 140 W/m 16,1 km/h (3 Bft) 99,71 %
22.10.2022 12:00 16,6 C 16,7 C 13,3 C 85 % 1014,6 hPa 0,0 l/m 0,00 h 0,00 h 173 W/m 22,4 km/h (4 Bft) 95,35 %
22.10.2022 13:00 17,0 C 16,7 C 13,3 C 83 % 1014,9 hPa 0,0 l/m 0,00 h 0,00 h 161 W/m 20,2 km/h (4 Bft) 98,29 %
22.10.2022 14:00 17,2 C 17,0 C 13,4 C 81 % 1014,8 hPa 0,0 l/m 0,00 h 0,00 h 162 W/m 18,7 km/h (3 Bft) 96,93 %
22.10.2022 15:00 17,5 C 17,0 C 13,3 C 80 % 1014,8 hPa 0,0 l/m 0,00 h 0,00 h 96 W/m 15,2 km/h (3 Bft) 97,67 %
22.10.2022 16:00 17,6 C 17,4 C 13,2 C 79 % 1014,8 hPa 0,0 l/m 0,63 h 0,00 h 154 W/m 9,4 km/h (2 Bft) 77,41 %
22.10.2022 17:00 17,8 C 16,6 C 12,7 C 79 % 1015,0 hPa 0,0 l/m 0,00 h 0,00 h 38 W/m 8,3 km/h (2 Bft) 81,39 %
22.10.2022 18:00 16,6 C 14,2 C 10,2 C 83 % 1015,2 hPa 0,0 l/m 0,00 h 0,00 h 10 W/m 0,8 km/h (0 Bft) 85,96 %
22.10.2022 19:00 15,3 C 14,3 C 10,6 C 87 % 1015,5 hPa 0,0 l/m 0,00 h 0,00 h 0 W/m 1,9 km/h (1 Bft) 96,38 %
22.10.2022 20:00 14,8 C 13,7 C 10,4 C 89 % 1015,6 hPa 0,0 l/m 0,00 h 0,00 h 0 W/m 1,3 km/h (1 Bft) 94,30 %
22.10.2022 21:00 14,2 C 12,8 C 9,4 C 90 % 1015,6 hPa 0,0 l/m 0,00 h 0,00 h 0 W/m 0,6 km/h (0 Bft) 98,40 %
22.10.2022 22:00 13,7 C 12,8 C 9,3 C 92 % 1015,5 hPa 0,0 l/m 0,00 h 0,00 h 0 W/m 2,8 km/h (1 Bft) 97,65 %
22.10.2022 23:00 13,6 C 12,6 C 9,6 C 94 % 1015,6 hPa 0,0 l/m 0,00 h 0,00 h 0 W/m 3,4 km/h (1 Bft) 86,29 %
23.10.2022 00:00 13,3 C 12,2 C 9,4 C 95 % 1015,5 hPa 0,0 l/m 0,00 h 0,00 h 0 W/m 2,9 km/h (1 Bft) 72,27 %
23.10.2022 01:00 13,2 C 12,2 C 9,4 C 96 % 1015,2 hPa 0,0 l/m 0,00 h 0,00 h 0 W/m 3,4 km/h (1 Bft) 62,13 %
23.10.2022 02:00 13,0 C 12,2 C 9,4 C 96 % 1014,9 hPa 0,0 l/m 0,00 h 0,00 h 0 W/m 4,8 km/h (1 Bft) 90,12 %
23.10.2022 03:00 12,7 C 11,8 C 9,1 C 97 % 1014,6 hPa 0,0 l/m 0,00 h 0,00 h 0 W/m 4,5 km/h (1 Bft) 84,83 %
23.10.2022 04:00 12,7 C 12,0 C 9,2 C 97 % 1014,0 hPa 0,0 l/m 0,00 h 0,00 h 0 W/m 5,5 km/h (1 Bft) 86,47 %
23.10.2022 05:00 12,8 C 12,2 C 9,4 C 97 % 1013,3 hPa 0,0 l/m 0,00 h 0,00 h 0 W/m 3,2 km/h (1 Bft) 94,32 %
23.10.2022 06:00 13,0 C 12,3 C 9,5 C 97 % 1012,9 hPa 0,0 l/m 0,00 h 0,00 h 0 W/m 6,5 km/h (2 Bft) 94,85 %
23.10.2022 07:00 13,1 C 12,3 C 9,7 C 97 % 1012,5 hPa 0,0 l/m 0,00 h 0,00 h 0 W/m 4,9 km/h (1 Bft) 96,37 %
23.10.2022 08:00 13,1 C 12,4 C 9,7 C 97 % 1012,0 hPa 0,0 l/m 0,00 h 0,00 h 16 W/m 3,9 km/h (1 Bft) 97,57 %
23.10.2022 09:00 13,5 C 13,4 C 10,5 C 96 % 1011,7 hPa 0,0 l/m 0,00 h 0,00 h 62 W/m 6,4 km/h (2 Bft) 95,77 %
23.10.2022 10:00 15,0 C 15,3 C 11,8 C 93 % 1011,4 hPa 0,0 l/m 0,00 h 0,00 h 127 W/m 10,2 km/h (2 Bft) 98,29 %
23.10.2022 11:00 16,3 C 16,5 C 12,6 C 88 % 1010,6 hPa 0,0 l/m 0,00 h 0,00 h 158 W/m 9,1 km/h (2 Bft) 96,37 %
23.10.2022 12:00 17,2 C 17,1 C 13,3 C 84 % 1009,8 hPa 0,0 l/m 0,00 h 0,00 h 161 W/m 12,0 km/h (2 Bft) 99,02 %
23.10.2022 13:00 17,6 C 17,2 C 13,4 C 83 % 1008,9 hPa 0,0 l/m 0,07 h 0,00 h 127 W/m 12,6 km/h (3 Bft) 95,52 %
23.10.2022 14:00 18,5 C 18,5 C 14,2 C 81 % 1008,1 hPa 0,0 l/m 0,50 h 0,00 h 222 W/m 18,2 km/h (3 Bft) 99,00 %
23.10.2022 15:00 18,4 C 17,9 C 13,9 C 81 % 1007,3 hPa 0,0 l/m 0,00 h 0,00 h 122 W/m 14,6 km/h (3 Bft) 97,37 %
23.10.2022 16:00 18,3 C 17,6 C 13,5 C 83 % 1006,9 hPa 0,0 l/m 0,00 h 0,00 h 72 W/m 9,4 km/h (2 Bft) 96,22 %
23.10.2022 17:00 17,7 C 16,5 C 12,5 C 86 % 1006,9 hPa 0,2 l/m 0,00 h 0,47 h 14 W/m 12,3 km/h (3 Bft) 98,22 %
23.10.2022 18:00 16,6 C 15,6 C 11,1 C 93 % 1006,5 hPa 0,4 l/m 0,00 h 0,70 h 0 W/m 14,1 km/h (3 Bft) 97,08 %
23.10.2022 19:00 16,4 C 15,6 C 11,4 C 95 % 1006,3 hPa 0,0 l/m 0,00 h 0,00 h 0 W/m 14,1 km/h (3 Bft) 93,88 %
23.10.2022 20:00 16,2 C 15,6 C 11,1 C 95 % 1006,3 hPa 0,0 l/m 0,00 h 0,00 h 0 W/m 14,8 km/h (3 Bft) 98,15 %
23.10.2022 21:00 16,0 C 15,1 C 11,2 C 93 % 1006,0 hPa 0,0 l/m 0,00 h 0,00 h 0 W/m 14,7 km/h (3 Bft) 95,87 %
23.10.2022 22:00 15,8 C 14,4 C 11,2 C 92 % 1006,8 hPa 1,8 l/m 0,00 h 0,33 h 0 W/m 17,0 km/h (3 Bft) 93,80 %
23.10.2022 23:00 15,1 C 13,7 C 10,4 C 95 % 1006,9 hPa 0,0 l/m 0,00 h 0,00 h 0 W/m 6,6 km/h (2 Bft) 57,93 %
Min-Datum _ 19.10.22 19.10.22 19.10.22 19.10.22 23.10.22 - - - - 17.10.22 23.10.22
_ Min-Zeit 06:42 06:28 06:32 14:36 18:46 - - - - 05:32 00:18
Minimum _ 6,7 C 5,6 C 3,9 C 75 % 1005,6 hPa - - - - 0,0 km/h (0 Bft) 8,70 %
Max-Datum _ 17.10.22 19.10.22 17.10.22 18.10.22 18.10.22 23.10.22 20.10.22 17.10.22 21.10.22 23.10.22 17.10.22
_ Max-Zeit 15:28 11:36 13:42 09:08 22:46 22:28 18:08 18:08 14:34 22:32 00:00
Maximum _ 19,5 C 24,4 C 15,6 C 100 % 1029,3 hPa 1,8 l/m 0,07 h 0,07 h 576 W/m 38,6 km/h
S-SO (5 Bft)
100,00 %
Durchschnitt _ 14,3 C 13,6 C 10,5 C 93 % 1017,1 hPa #7,4 l/m #11:08 h #9:42 h 109 W/m 7,4 km/h (2 Bft) 95,56 %
© 2022 W. Hausmann